Time;durP1;ratioP1;P1;durP2;ratioP2;P2;SDS_P1;SDS_P2;PMS_P1;PMS_P2;Temp;Humidity;BMP_temperature;BMP_pressure;BME280_temperature;BME280_humidity;BME280_pressure;Samples;Min_cycle;Max_cycle;Signal;HPM_P1;HPM_P2
2023/07/22 00:01:38;;;;;;;0.35;0.35;;;25.80;64.60;;;26.31;48.78;94709.25;5075394;28;20580;-41
2023/07/22 00:04:05;;;;;;;0.50;0.50;;;25.80;64.60;;;26.28;48.60;94713.34;5075002;28;20725;-40
2023/07/22 00:06:32;;;;;;;0.35;0.35;;;25.80;64.70;;;26.29;49.25;94714.94;5074769;28;20301;-40
2023/07/22 00:08:59;;;;;;;0.30;0.30;;;25.80;64.60;;;26.26;48.84;94728.97;5091380;28;20608;-41
2023/07/22 00:11:26;;;;;;;0.30;0.30;;;25.80;64.60;;;26.26;48.48;94736.25;5074745;28;20199;-41
2023/07/22 00:13:54;;;;;;;0.30;0.30;;;25.80;64.60;;;26.24;48.62;94735.75;5075175;28;20248;-41
2023/07/22 00:16:21;;;;;;;0.30;0.30;;;25.80;64.60;;;26.23;48.98;94726.84;5075254;28;20210;-41
2023/07/22 00:18:48;;;;;;;0.30;0.30;;;25.70;64.60;;;26.23;49.22;94732.22;5074990;28;20195;-41
2023/07/22 00:21:15;;;;;;;0.30;0.30;;;25.80;64.80;;;26.21;48.76;94732.53;5075491;28;20226;-41
2023/07/22 00:23:42;;;;;;;0.50;0.50;;;25.70;64.70;;;26.21;48.75;94745.19;5074196;28;20523;-41
2023/07/22 00:26:09;;;;;;;0.30;0.30;;;25.70;64.70;;;26.23;48.73;94744.88;5074906;28;20206;-40
2023/07/22 00:28:37;;;;;;;0.30;0.30;;;25.70;64.80;;;26.21;48.99;94748.66;5075056;28;20232;-41
2023/07/22 00:31:04;;;;;;;0.30;0.30;;;25.70;64.80;;;26.20;48.88;94741.69;5074841;28;20251;-41
2023/07/22 00:33:31;;;;;;;0.45;0.45;;;25.70;64.80;;;26.21;49.15;94734.44;5074408;28;20197;-41
2023/07/22 00:35:58;;;;;;;0.30;0.30;;;25.70;64.90;;;26.21;49.33;94739.81;5074925;28;20578;-43
2023/07/22 00:38:27;;;;;;;0.30;0.30;;;25.70;65.00;;;26.21;49.03;94745.19;5075337;28;20203;-41
2023/07/22 00:40:54;;;;;;;0.30;0.30;;;25.70;65.80;;;26.20;48.94;94747.06;5074726;28;20190;-41
2023/07/22 00:43:22;;;;;;;0.30;0.30;;;25.70;65.00;;;26.20;49.62;94743.59;5073650;28;20204;-41
2023/07/22 00:45:49;;;;;;;0.38;0.38;;;25.70;65.00;;;26.19;49.34;94742.78;5073648;28;20270;-41
2023/07/22 00:48:17;;;;;;;0.40;0.40;;;25.70;65.00;;;26.19;49.31;94737.41;5073705;28;20248;-41
2023/07/22 00:50:44;;;;;;;0.20;0.20;;;25.70;65.10;;;26.18;49.00;94743.91;5074040;28;20199;-40
2023/07/22 00:53:12;;;;;;;0.35;0.35;;;25.70;65.00;;;26.16;49.55;94738.00;5074727;28;20194;-40
2023/07/22 00:55:43;;;;;;;0.30;0.30;;;25.70;65.10;;;26.17;49.27;94734.22;5074003;28;20216;-42
2023/07/22 00:58:10;;;;;;;0.30;0.30;;;25.70;65.10;;;26.15;49.66;94731.03;5074954;28;20512;-41
2023/07/22 01:00:37;;;;;;;0.30;0.30;;;25.70;65.10;;;26.16;49.25;94738.00;5073864;28;20219;-41
2023/07/22 01:03:06;;;;;;;0.20;0.20;;;25.70;65.10;;;26.15;49.26;94741.78;5074354;28;20212;-41
2023/07/22 01:05:36;;;;;;;0.30;0.30;;;25.70;65.00;;;26.14;49.67;94739.41;5073910;28;20293;-41
2023/07/22 01:08:04;;;;;;;0.30;0.30;;;25.70;65.00;;;26.13;49.25;94749.34;5074396;28;20277;-41
2023/07/22 01:10:32;;;;;;;0.40;0.40;;;25.70;65.00;;;26.12;49.32;94745.06;5074724;28;20192;-41
2023/07/22 01:12:59;;;;;;;0.40;0.40;;;25.70;65.00;;;26.10;49.36;94747.25;5074943;28;20248;-41
2023/07/22 01:15:27;;;;;;;0.30;0.30;;;25.60;65.00;;;26.10;49.31;94755.31;5074544;28;20235;-40
2023/07/22 01:17:56;;;;;;;0.30;0.30;;;25.70;65.00;;;26.10;49.64;94747.25;5057038;28;20222;-41
2023/07/22 01:20:24;;;;;;;0.20;0.20;;;25.60;65.00;;;26.09;49.88;94745.66;5073799;28;20196;-41
2023/07/22 01:22:52;;;;;;;0.30;0.30;;;25.60;65.00;;;26.09;49.63;94752.94;5073427;28;20230;-41
2023/07/22 01:25:23;;;;;;;0.38;0.38;;;25.60;65.00;;;26.07;49.43;94750.53;5074476;28;20195;-41
2023/07/22 01:27:52;;;;;;;0.30;0.30;;;25.60;65.10;;;26.05;49.38;94760.75;5056882;28;20234;-41
2023/07/22 01:30:19;;;;;;;0.30;0.30;;;25.60;65.00;;;26.04;49.46;94754.56;5074581;28;20219;-41
2023/07/22 01:32:47;;;;;;;0.30;0.30;;;25.60;64.80;;;26.03;49.45;94761.03;5074447;28;20249;-41
2023/07/22 01:35:14;;;;;;;0.30;0.30;;;25.60;65.00;;;26.03;49.49;94763.72;5074127;28;20201;-41
2023/07/22 01:37:42;;;;;;;0.30;0.30;;;25.60;65.00;;;26.01;49.30;94773.97;5076290;28;20229;-41
2023/07/22 01:40:13;;;;;;;0.30;0.30;;;25.60;65.00;;;26.01;49.48;94770.47;5078085;28;20195;-41
2023/07/22 01:42:41;;;;;;;0.30;0.30;;;25.50;65.00;;;25.98;49.59;94769.19;5078091;28;20511;-41
2023/07/22 01:45:10;;;;;;;0.32;0.32;;;25.60;65.00;;;25.95;49.62;94766.28;5076333;28;20234;-40
2023/07/22 01:47:40;;;;;;;0.40;0.40;;;25.60;65.10;;;25.97;49.46;94772.16;5060275;28;20210;-41
2023/07/22 01:50:08;;;;;;;0.30;0.30;;;25.50;65.10;;;25.95;49.81;94769.78;5077585;28;20279;-41
2023/07/22 01:52:35;;;;;;;0.30;0.30;;;25.50;65.00;;;25.95;49.65;94771.66;5076693;28;20197;-40
2023/07/22 01:55:05;;;;;;;0.30;0.30;;;25.50;65.10;;;25.93;49.43;94773.81;5077640;28;20262;-41
2023/07/22 01:57:33;;;;;;;0.30;0.30;;;25.50;65.00;;;25.91;49.62;94773.34;5077677;28;20567;-41
2023/07/22 02:00:01;;;;;;;0.40;0.40;;;25.50;65.10;;;25.92;49.77;94774.94;5076508;28;20208;-40
2023/07/22 02:02:38;;;;;;;0.30;0.30;;;25.50;65.20;;;25.89;49.65;94774.44;5077424;28;20179;-40
2023/07/22 02:05:06;;;;;;;0.60;0.60;;;25.40;65.10;;;25.89;49.51;94784.38;5077426;28;20198;-40
2023/07/22 02:07:34;;;;;;;0.30;0.30;;;25.50;65.20;;;25.89;49.84;94779.00;5076329;28;20258;-41
2023/07/22 02:10:01;;;;;;;0.30;0.30;;;25.50;65.30;;;25.88;49.66;94780.88;5059995;28;20694;-40
2023/07/22 02:12:28;;;;;;;0.30;0.30;;;25.50;65.10;;;25.87;49.45;94792.72;5076288;28;20196;-41
2023/07/22 02:14:55;;;;;;;0.40;0.40;;;25.40;65.10;;;25.85;49.21;94789.53;5077015;28;20678;-41
2023/07/22 02:17:23;;;;;;;0.35;0.35;;;25.40;65.10;;;25.85;49.45;94799.47;5076539;28;20563;-41
2023/07/22 02:19:51;;;;;;;0.22;0.22;;;25.40;65.10;;;25.85;49.75;94797.59;5076151;28;20229;-41
2023/07/22 02:22:18;;;;;;;0.40;0.40;;;25.40;65.10;;;25.83;49.34;94793.59;5076378;28;20236;-41
2023/07/22 02:24:45;;;;;;;0.30;0.30;;;25.40;65.20;;;25.82;49.55;94798.19;5077091;28;20192;-41
2023/07/22 02:27:13;;;;;;;0.30;0.30;;;25.40;65.10;;;25.81;49.50;94810.00;5077233;28;20199;-41
2023/07/22 02:29:41;;;;;;;0.38;0.38;;;25.40;65.20;;;25.81;49.58;94809.22;5077081;28;20306;-41
2023/07/22 02:32:08;;;;;;;0.28;0.28;;;25.40;64.90;;;25.80;49.34;94807.63;5075924;28;20201;-41
2023/07/22 02:34:37;;;;;;;0.40;0.40;;;25.30;65.10;;;25.77;49.54;94809.00;5075679;28;20628;-43
2023/07/22 02:37:04;;;;;;;0.30;0.30;;;25.40;65.10;;;25.78;49.71;94821.34;5076772;28;20198;-41
2023/07/22 02:39:32;;;;;;;0.30;0.30;;;25.30;65.20;;;25.77;49.56;94814.38;5075739;28;20220;-41
2023/07/22 02:42:01;;;;;;;0.50;0.50;;;25.30;65.20;;;25.77;49.88;94818.94;5077438;28;20554;-41
2023/07/22 02:44:28;;;;;;;0.30;0.30;;;25.30;65.20;;;25.77;49.70;94825.13;5076395;28;20264;-41
2023/07/22 02:46:55;;;;;;;0.20;0.20;;;25.30;65.20;;;25.75;49.45;94826.50;5075559;28;20202;-41
2023/07/22 02:49:22;;;;;;;0.47;0.47;;;25.30;65.10;;;25.73;49.80;94827.59;5074825;28;20223;-41
2023/07/22 02:51:50;;;;;;;0.30;0.30;;;25.30;65.10;;;25.73;50.15;94830.28;5076461;28;20195;-40
2023/07/22 02:54:17;;;;;;;0.30;0.30;;;25.30;65.30;;;25.73;49.94;94829.47;5076424;28;20191;-41
2023/07/22 02:56:44;;;;;;;0.40;0.40;;;25.30;65.20;;;25.72;49.53;94830.56;5076500;28;20222;-41
2023/07/22 02:59:11;;;;;;;0.30;0.30;;;25.30;65.10;;;25.71;49.85;94839.72;5076576;28;20634;-40
2023/07/22 03:01:39;;;;;;;0.40;0.40;;;25.30;65.10;;;25.71;49.70;94832.44;5076297;28;20198;-41
2023/07/22 03:04:06;;;;;;;0.40;0.40;;;25.30;65.10;;;25.70;49.51;94838.13;5091853;28;20609;-41
2023/07/22 03:06:34;;;;;;;0.30;0.30;;;25.30;65.20;;;25.69;49.87;94849.94;5075493;28;20201;-41
2023/07/22 03:09:01;;;;;;;0.30;0.30;;;25.30;65.30;;;25.68;49.94;94846.47;5076025;28;20675;-41
2023/07/22 03:11:28;;;;;;;0.30;0.30;;;25.30;65.10;;;25.66;49.61;94847.81;5075205;28;20200;-41
2023/07/22 03:13:55;;;;;;;0.38;0.38;;;25.20;65.00;;;25.65;49.83;94851.63;5075507;28;20253;-40
2023/07/22 03:16:23;;;;;;;0.30;0.30;;;25.20;65.00;;;25.65;49.78;94848.94;5075258;28;20259;-43
2023/07/22 03:18:50;;;;;;;0.50;0.50;;;25.20;65.20;;;25.64;49.61;94856.19;5075270;28;20194;-42
2023/07/22 03:21:18;;;;;;;0.40;0.40;;;25.20;65.20;;;25.64;49.58;94853.50;5074891;28;20202;-41
2023/07/22 03:23:45;;;;;;;0.50;0.50;;;25.20;65.30;;;25.64;49.98;94863.44;5075667;28;20214;-40
2023/07/22 03:26:12;;;;;;;0.47;0.47;;;25.20;65.30;;;25.64;49.97;94860.75;5075768;28;20591;-41
2023/07/22 03:28:41;;;;;;;0.38;0.38;;;25.20;65.30;;;25.63;49.84;94859.16;5074821;28;20219;-41
2023/07/22 03:31:08;;;;;;;0.43;0.43;;;25.20;65.30;;;25.62;49.92;94871.81;5075899;28;20187;-41
2023/07/22 03:33:35;;;;;;;0.30;0.30;;;25.20;65.40;;;25.62;49.98;94869.13;5074630;28;20218;-41
2023/07/22 03:36:03;;;;;;;0.40;0.40;;;25.20;65.50;;;25.62;50.12;94871.81;5075416;28;20197;-41
2023/07/22 03:38:30;;;;;;;0.30;0.30;;;25.20;65.50;;;25.63;49.99;94872.59;5076070;28;20231;-40
2023/07/22 03:40:58;;;;;;;0.25;0.25;;;25.20;65.50;;;25.62;50.05;94866.44;5074523;28;20205;-41
2023/07/22 03:43:25;;;;;;;0.30;0.30;;;25.20;65.40;;;25.63;49.73;94864.53;5075464;28;20662;-41
2023/07/22 03:45:52;;;;;;;0.30;0.30;;;25.20;65.30;;;25.61;49.66;94872.88;5075138;28;20310;-41
2023/07/22 03:48:19;;;;;;;0.40;0.40;;;25.20;65.20;;;25.57;49.53;94867.28;5075260;28;20675;-40
2023/07/22 03:50:47;;;;;;;0.30;0.30;;;25.20;65.10;;;25.55;49.62;94871.34;5074551;28;20202;-41
2023/07/22 03:53:14;;;;;;;0.30;0.30;;;25.20;65.00;;;25.53;49.42;94865.47;5074485;28;20565;-40
2023/07/22 03:55:41;;;;;;;0.30;0.30;;;25.20;65.10;;;25.50;49.95;94877.59;5075137;28;20296;-40
2023/07/22 03:58:08;;;;;;;0.50;0.50;;;25.20;65.20;;;25.51;49.87;94868.44;5074432;28;20194;-41
2023/07/22 04:00:38;;;;;;;0.35;0.35;;;25.20;65.20;;;25.49;49.56;94875.19;5074875;28;20231;-41
2023/07/22 04:03:05;;;;;;;0.50;0.50;;;25.20;65.20;;;25.48;49.87;94877.06;5074355;28;20194;-41
2023/07/22 04:05:32;;;;;;;0.40;0.40;;;25.10;65.20;;;25.48;49.76;94877.06;5074991;28;20206;-41
2023/07/22 04:07:59;;;;;;;0.30;0.30;;;25.10;65.20;;;25.47;49.87;94880.81;5057869;28;20194;-40
2023/07/22 04:10:26;;;;;;;0.30;0.30;;;25.10;65.20;;;25.47;49.70;94878.13;5074072;28;20311;-41
2023/07/22 04:12:53;;;;;;;0.30;0.30;;;25.10;65.10;;;25.46;49.74;94891.88;5075095;28;20266;-40
2023/07/22 04:15:20;;;;;;;0.38;0.38;;;25.10;65.20;;;25.45;49.81;94885.72;5073975;28;20198;-41
2023/07/22 04:17:48;;;;;;;0.30;0.30;;;25.10;65.10;;;25.43;49.85;94887.88;5090827;28;20281;-41
2023/07/22 04:20:15;;;;;;;0.30;0.30;;;25.10;65.20;;;25.42;49.55;94891.63;5074077;28;20205;-41
2023/07/22 04:22:43;;;;;;;0.50;0.50;;;25.10;65.20;;;25.40;49.58;94896.47;5074917;28;20205;-40
2023/07/22 04:25:10;;;;;;;0.30;0.30;;;25.10;65.20;;;25.40;49.61;94899.97;5074938;28;20277;-41
2023/07/22 04:27:38;;;;;;;0.38;0.38;;;25.00;65.20;;;25.40;49.83;94899.16;5074052;28;20208;-40
2023/07/22 04:30:06;;;;;;;0.50;0.50;;;25.00;65.20;;;25.40;50.27;94901.84;5074799;28;20547;-41
2023/07/22 04:32:33;;;;;;;0.40;0.40;;;25.00;65.30;;;25.39;49.63;94908.34;5074867;28;20295;-40
2023/07/22 04:35:01;;;;;;;0.30;0.30;;;25.00;65.30;;;25.39;49.93;94905.66;5073853;28;20281;-40
2023/07/22 04:37:28;;;;;;;0.38;0.38;;;25.00;65.20;;;25.38;49.81;94902.16;5074784;28;20281;-41
2023/07/22 04:39:55;;;;;;;0.30;0.30;;;25.00;65.40;;;25.39;50.02;94900.28;5074780;28;20600;-41
2023/07/22 04:42:22;;;;;;;0.40;0.40;;;25.00;65.20;;;25.39;49.85;94911.03;5075066;28;20717;-41
2023/07/22 04:44:50;;;;;;;0.28;0.28;;;25.00;65.20;;;25.36;49.68;94906.97;5073659;28;20234;-40
2023/07/22 04:47:17;;;;;;;0.30;0.30;;;25.00;65.20;;;25.36;49.83;94903.50;5074947;28;20209;-41
2023/07/22 04:49:44;;;;;;;0.30;0.30;;;25.00;65.10;;;25.35;49.66;94907.25;5075077;28;20233;-40
2023/07/22 04:52:11;;;;;;;0.30;0.30;;;25.00;65.10;;;25.35;49.61;94908.06;5075080;28;20197;-40
2023/07/22 04:54:38;;;;;;;0.30;0.30;;;25.00;65.10;;;25.33;49.79;94910.25;5074990;28;20193;-42
2023/07/22 04:57:05;;;;;;;0.40;0.40;;;24.90;65.10;;;25.32;49.79;94908.63;5075132;28;20195;-41
2023/07/22 04:59:32;;;;;;;0.40;0.40;;;24.90;65.00;;;25.33;49.77;94912.09;5074588;28;20226;-41
2023/07/22 05:01:59;;;;;;;0.30;0.30;;;25.00;65.10;;;25.32;49.63;94910.53;5073746;28;20198;-41
2023/07/22 05:04:26;;;;;;;0.40;0.40;;;24.90;64.90;;;25.30;49.49;94918.84;5074527;28;20277;-40
2023/07/22 05:06:54;;;;;;;0.40;0.40;;;25.00;65.10;;;25.30;49.66;94916.16;5075808;28;20560;-38
2023/07/22 05:09:22;;;;;;;0.30;0.30;;;24.90;64.90;;;25.29;49.54;94925.28;5073997;28;20214;-39
2023/07/22 05:11:49;;;;;;;0.40;0.40;;;24.90;65.00;;;25.28;49.66;94926.41;5075948;28;20200;-39
2023/07/22 05:14:16;;;;;;;0.30;0.30;;;24.90;65.00;;;25.27;49.43;94927.47;5078772;28;20232;-39
2023/07/22 05:16:43;;;;;;;0.30;0.30;;;24.90;65.00;;;25.28;49.44;94930.97;5078722;28;20196;-39
2023/07/22 05:19:10;;;;;;;0.30;0.30;;;24.90;65.00;;;25.30;49.49;94943.00;5079084;28;20194;-38
2023/07/22 05:21:38;;;;;;;0.30;0.30;;;24.90;64.80;;;25.28;49.41;94941.69;5078605;28;20277;-39
2023/07/22 05:24:05;;;;;;;0.30;0.30;;;24.90;65.00;;;25.26;49.62;94948.16;5078604;28;20200;-39
2023/07/22 05:26:32;;;;;;;0.30;0.30;;;24.90;64.70;;;25.26;49.09;94933.94;5078741;28;20187;-38
2023/07/22 05:28:59;;;;;;;0.40;0.40;;;24.90;64.90;;;25.25;49.49;94938.50;5077311;28;20278;-38
2023/07/22 05:31:26;;;;;;;0.30;0.30;;;24.90;64.80;;;25.25;49.58;94935.84;5078360;28;20631;-39
2023/07/22 05:33:54;;;;;;;0.40;0.40;;;24.90;65.00;;;25.26;49.45;94933.94;5078344;28;20318;-38
2023/07/22 05:36:21;;;;;;;0.43;0.43;;;24.90;64.90;;;25.26;49.43;94940.09;5078027;28;20601;-40
2023/07/22 05:38:48;;;;;;;0.30;0.30;;;24.90;64.80;;;25.25;49.55;94943.88;5077746;28;20237;-41
2023/07/22 05:41:16;;;;;;;0.30;0.30;;;24.90;64.80;;;25.24;49.19;94944.97;5077922;28;20214;-41
2023/07/22 05:43:43;;;;;;;0.30;0.30;;;24.90;64.80;;;25.26;49.35;94942.00;5078259;28;20353;-41
2023/07/22 05:46:10;;;;;;;0.30;0.30;;;24.90;64.80;;;25.25;49.28;94946.56;5060397;28;20285;-39
2023/07/22 05:48:38;;;;;;;0.30;0.30;;;24.90;64.80;;;25.27;49.40;94938.22;5077622;28;20194;-39
2023/07/22 05:51:05;;;;;;;0.55;0.55;;;24.90;64.90;;;25.26;49.41;94937.41;5077664;28;20254;-40
2023/07/22 05:53:33;;;;;;;0.30;0.30;;;24.90;64.80;;;25.28;49.22;94947.06;5078168;28;20192;-39
2023/07/22 05:56:00;;;;;;;0.30;0.30;;;24.90;64.80;;;25.28;49.42;94939.00;5077364;28;20219;-40
2023/07/22 05:58:27;;;;;;;0.50;0.50;;;24.90;64.80;;;25.27;49.35;94935.53;5077550;28;20615;-39
2023/07/22 06:00:55;;;;;;;0.32;0.32;;;24.90;64.70;;;25.28;49.58;94928.28;5077790;28;20201;-38
2023/07/22 06:03:22;;;;;;;0.30;0.30;;;24.90;64.80;;;25.28;49.44;94930.97;5060735;28;20240;-52
2023/07/22 06:05:49;;;;;;;0.30;0.30;;;24.90;64.60;;;25.29;49.33;94935.25;5077788;28;20232;-39
2023/07/22 06:08:17;;;;;;;0.40;0.40;;;24.90;64.60;;;25.29;49.32;94938.72;5078331;28;20208;-38
2023/07/22 06:10:44;;;;;;;0.30;0.30;;;24.90;64.60;;;25.29;49.19;94933.34;5078765;28;20707;-40
2023/07/22 06:13:11;;;;;;;0.30;0.30;;;24.90;64.60;;;25.30;49.20;94934.97;5060404;28;20202;-49
2023/07/22 06:15:38;;;;;;;0.40;0.40;;;24.90;64.70;;;25.31;49.14;94927.72;5077937;28;20528;-39
2023/07/22 06:18:08;;;;;;;0.30;0.30;;;24.90;64.70;;;25.31;49.12;94927.72;5077930;28;20222;-39
2023/07/22 06:20:36;;;;;;;0.30;0.30;;;24.90;64.60;;;25.32;49.36;94929.31;5076758;28;20198;-38
2023/07/22 06:23:03;;;;;;;0.40;0.40;;;24.90;64.60;;;25.31;48.94;94931.19;5078126;28;20203;-38
2023/07/22 06:25:30;;;;;;;0.30;0.30;;;25.00;64.70;;;25.33;49.11;94938.94;5077492;28;20199;-41
2023/07/22 06:27:58;;;;;;;0.30;0.30;;;25.00;64.70;;;25.33;49.06;94937.09;5077553;28;20252;-37
2023/07/22 06:30:25;;;;;;;0.50;0.50;;;24.90;64.40;;;25.34;49.23;94929.81;5077904;28;20226;-42
2023/07/22 06:32:52;;;;;;;0.45;0.45;;;24.90;64.40;;;25.34;49.28;94936.00;5077836;28;20191;-39
2023/07/22 06:35:19;;;;;;;0.30;0.30;;;25.00;64.60;;;25.34;49.15;94932.50;5077355;28;20193;-38
2023/07/22 06:37:46;;;;;;;0.30;0.30;;;25.00;64.60;;;25.35;48.60;94931.41;5077300;28;20284;-39
2023/07/22 06:40:13;;;;;;;0.30;0.30;;;25.00;64.40;;;25.35;48.92;94945.66;5076883;28;20278;-41
2023/07/22 06:42:41;;;;;;;0.40;0.40;;;25.00;64.40;;;25.35;48.72;94942.97;5076469;28;20568;-41
2023/07/22 06:45:08;;;;;;;0.35;0.35;;;25.00;64.20;;;25.35;48.96;94942.16;5076611;28;20296;-38
2023/07/22 06:47:36;;;;;;;0.40;0.40;;;25.00;64.20;;;25.35;48.68;94942.97;5076977;28;20198;-39
2023/07/22 06:50:04;;;;;;;0.30;0.30;;;25.00;64.10;;;25.36;48.53;94944.56;5076959;28;20247;-40
2023/07/22 06:52:32;;;;;;;0.25;0.25;;;25.00;64.20;;;25.36;48.71;94944.56;5077091;28;20578;-37
2023/07/22 06:55:00;;;;;;;0.30;0.30;;;25.00;64.20;;;25.37;48.74;94942.69;5076582;28;20546;-41
2023/07/22 06:57:29;;;;;;;0.30;0.30;;;25.00;64.30;;;25.39;48.48;94940.56;5076482;28;20184;-39
2023/07/22 06:59:57;;;;;;;0.40;0.40;;;25.00;64.30;;;25.40;48.50;94940.25;5076870;28;20190;-38
2023/07/22 07:02:24;;;;;;;0.30;0.30;;;25.00;64.20;;;25.42;48.82;94939.97;5076398;28;20196;-39
2023/07/22 07:04:51;;;;;;;0.30;0.30;;;25.00;64.20;;;25.43;48.66;94949.63;5077232;28;20531;-38
2023/07/22 07:07:18;;;;;;;0.30;0.30;;;25.00;64.30;;;25.43;48.71;94946.94;5076532;28;20335;-39
2023/07/22 07:09:45;;;;;;;0.40;0.40;;;25.00;64.20;;;25.44;48.45;94953.91;5076591;28;20736;-39
2023/07/22 07:12:12;;;;;;;0.40;0.40;;;25.10;63.90;;;25.44;48.59;94948.53;5076860;28;20226;-37
2023/07/22 07:14:39;;;;;;;0.30;0.30;;;25.10;64.00;;;25.45;48.19;94949.34;5076561;28;20239;-39
2023/07/22 07:17:06;;;;;;;0.30;0.30;;;25.10;63.90;;;25.46;48.48;94942.88;5076139;28;20190;-38
2023/07/22 07:19:33;;;;;;;0.20;0.20;;;25.10;63.90;;;25.46;48.56;94950.94;5076425;28;20707;-38
2023/07/22 07:22:00;;;;;;;0.30;0.30;;;25.10;64.00;;;25.48;48.30;94951.47;5076393;28;20208;-38
2023/07/22 07:24:28;;;;;;;0.50;0.50;;;25.10;64.00;;;25.48;48.47;94954.94;5076313;28;20230;-39
2023/07/22 07:26:55;;;;;;;0.40;0.40;;;25.10;63.80;;;25.50;48.53;94949.28;5077145;28;20195;-39
2023/07/22 07:29:22;;;;;;;0.30;0.30;;;25.10;63.90;;;25.51;48.57;94953.56;5076242;28;20399;-40
2023/07/22 07:32:09;;;;;;;0.30;0.30;;;25.10;63.80;;;25.51;48.33;94948.19;5076769;28;20184;-37
2023/07/22 07:34:36;;;;;;;0.32;0.32;;;25.10;63.80;;;25.52;48.09;94955.16;5075706;28;20622;-38
2023/07/22 07:37:05;;;;;;;0.30;0.30;;;25.20;63.90;;;25.53;48.09;94946.81;5075275;28;20205;-38
2023/07/22 07:39:32;;;;;;;0.30;0.30;;;25.10;63.80;;;25.54;48.15;94953.00;5075982;28;20206;-39
2023/07/22 07:41:59;;;;;;;0.20;0.20;;;25.20;63.90;;;25.55;48.46;94950.03;5075846;28;20202;-37
2023/07/22 07:44:26;;;;;;;0.50;0.50;;;25.20;63.90;;;25.56;48.16;94948.94;5075719;28;20354;-38
2023/07/22 07:46:53;;;;;;;0.40;0.40;;;25.20;64.00;;;25.57;48.29;94953.22;5075847;28;20238;-40
2023/07/22 07:49:21;;;;;;;0.50;0.50;;;25.20;63.80;;;25.59;48.45;94960.22;5074764;28;20293;-37
2023/07/22 07:51:48;;;;;;;0.40;0.40;;;25.20;63.80;;;25.60;48.14;94964.47;5075473;28;20187;-39
2023/07/22 07:54:15;;;;;;;0.30;0.30;;;25.20;63.80;;;25.59;47.93;94969.06;5075605;28;20523;-40
2023/07/22 07:56:42;;;;;;;0.25;0.25;;;25.20;63.60;;;25.62;47.78;94959.63;5075323;28;20261;-38
2023/07/22 07:59:09;;;;;;;0.40;0.40;;;25.30;63.60;;;25.61;48.00;94961.53;5075761;28;20283;-39
2023/07/22 08:01:41;;;;;;;0.30;0.30;;;25.20;63.60;;;25.61;48.05;94955.34;5076379;28;20679;-39
2023/07/22 08:04:09;;;;;;;0.30;0.30;;;25.20;63.50;;;25.62;47.90;94957.75;5076612;28;20204;-37
2023/07/22 08:06:37;;;;;;;0.30;0.30;;;25.30;63.50;;;25.63;47.80;94958.53;5075818;28;20631;-44
2023/07/22 08:09:10;;;;;;;0.30;0.30;;;25.20;63.40;;;25.63;47.69;94961.22;5075779;28;20199;-37
2023/07/22 08:11:38;;;;;;;0.30;0.30;;;25.20;63.40;;;25.64;47.87;94960.94;5077758;28;20178;-38
2023/07/22 08:14:07;;;;;;;0.35;0.35;;;25.30;63.50;;;25.65;48.04;94959.84;5074505;28;20195;-41
2023/07/22 08:16:34;;;;;;;0.30;0.30;;;25.30;63.50;;;25.67;47.75;94951.50;5074441;28;20251;-38
2023/07/22 08:19:02;;;;;;;0.40;0.40;;;25.30;63.50;;;25.68;47.93;94961.16;5075220;28;20226;-38
2023/07/22 08:21:29;;;;;;;0.52;0.52;;;25.30;63.50;;;25.68;47.91;94967.34;5076001;28;20258;-38
2023/07/22 08:23:57;;;;;;;0.30;0.30;;;25.30;63.20;;;25.70;47.32;94959.78;5075712;28;20260;-38
2023/07/22 08:26:24;;;;;;;0.30;0.30;;;25.30;63.30;;;25.69;47.60;94960.88;5075015;28;20198;-40
2023/07/22 08:28:51;;;;;;;0.35;0.35;;;25.30;63.30;;;25.69;47.67;94960.88;5075358;28;20626;-37
2023/07/22 08:31:19;;;;;;;0.30;0.30;;;25.30;63.20;;;25.72;47.80;94967.56;5075075;28;20281;-40
2023/07/22 08:33:46;;;;;;;0.30;0.30;;;25.30;63.10;;;25.73;47.51;94969.16;5076460;28;20570;-39
2023/07/22 08:36:13;;;;;;;0.30;0.30;;;25.30;63.30;;;25.72;47.39;94973.75;5075964;28;20202;-39
2023/07/22 08:38:40;;;;;;;0.30;0.30;;;25.40;63.10;;;25.74;47.05;94970.75;5074685;28;20657;-39
2023/07/22 08:41:08;;;;;;;0.30;0.30;;;25.30;63.00;;;25.77;47.46;94972.06;5074796;28;20199;-40
2023/07/22 08:43:40;;;;;;;0.30;0.30;;;25.40;63.10;;;25.76;47.59;94973.97;5073900;28;20207;-40
2023/07/22 08:46:09;;;;;;;0.40;0.40;;;25.40;63.10;;;25.79;47.60;94978.75;5092184;28;20184;-40
2023/07/22 08:48:40;;;;;;;0.30;0.30;;;25.40;63.10;;;25.79;47.38;94994.09;5079421;28;20227;-37
2023/07/22 08:51:16;;;;;;;0.20;0.20;;;25.40;63.10;;;25.80;47.09;94979.56;5079645;28;20284;-37
2023/07/22 08:53:45;;;;;;;0.30;0.30;;;25.40;63.00;;;25.81;47.39;94975.78;5079316;28;20633;-38
2023/07/22 08:56:31;;;;;;;0.50;0.50;;;25.40;63.10;;;25.83;47.17;94978.97;5080056;28;20636;-38
2023/07/22 08:58:59;;;;;;;0.30;0.30;;;25.40;62.80;;;25.82;47.11;94967.44;5080119;28;20250;-37
2023/07/22 09:01:26;;;;;;;0.40;0.40;;;25.40;62.80;;;25.85;47.36;94966.06;5079880;28;20200;-37
2023/07/22 09:03:56;;;;;;;0.30;0.30;;;25.40;62.90;;;25.86;46.78;94970.34;5079772;28;20206;-39
2023/07/22 09:06:24;;;;;;;0.30;0.30;;;25.40;62.90;;;25.86;46.97;94973.84;5079224;28;20566;-38
2023/07/22 09:08:53;;;;;;;0.30;0.30;;;25.50;62.80;;;25.87;46.84;94966.59;5078718;28;20204;-38
2023/07/22 09:11:21;;;;;;;0.30;0.30;;;25.40;62.70;;;25.88;46.78;94968.19;5078653;28;20215;-41
2023/07/22 09:13:48;;;;;;;0.20;0.20;;;25.50;62.80;;;25.89;46.57;94965.22;5079170;28;20252;-40
2023/07/22 09:16:17;;;;;;;0.30;0.30;;;25.50;62.70;;;25.89;46.97;94959.84;5078508;28;20286;-39
2023/07/22 09:18:44;;;;;;;0.50;0.50;;;25.50;62.70;;;25.92;46.76;94968.41;5061613;28;20624;-39
2023/07/22 09:21:11;;;;;;;0.47;0.47;;;25.50;62.50;;;25.93;46.55;94967.31;5078198;28;20278;-40
2023/07/22 09:23:39;;;;;;;0.30;0.30;;;25.50;62.60;;;25.94;46.75;94971.59;5077619;28;20199;-40
2023/07/22 09:26:15;;;;;;;0.30;0.30;;;25.50;62.50;;;25.95;46.42;94975.88;5078111;28;20622;-39
2023/07/22 09:28:56;;;;;;;0.30;0.30;;;25.50;62.30;;;25.95;46.09;94967.81;5078204;28;20195;-40
2023/07/22 09:31:25;;;;;;;0.30;0.30;;;25.50;62.00;;;25.96;46.07;94967.53;5077991;28;20229;-39
2023/07/22 09:33:54;;;;;;;0.30;0.30;;;25.50;62.20;;;25.97;45.82;94962.97;5077987;28;20187;-39
2023/07/22 09:36:21;;;;;;;0.30;0.30;;;25.50;62.10;;;25.98;45.83;94962.69;5060466;28;20207;-39
2023/07/22 09:39:04;;;;;;;0.40;0.40;;;25.50;62.00;;;25.98;45.79;94956.50;5076930;28;20203;-39
2023/07/22 09:41:31;;;;;;;0.30;0.30;;;25.60;61.90;;;25.98;46.09;94959.19;5077825;28;20209;-39
2023/07/22 09:44:03;;;;;;;0.30;0.30;;;25.60;62.10;;;26.00;45.94;94957.00;5077757;28;20238;-40
2023/07/22 09:46:34;;;;;;;0.30;0.30;;;25.60;62.00;;;26.00;45.92;94955.13;5077595;28;20513;-39
2023/07/22 09:49:05;;;;;;;0.20;0.20;;;25.60;61.80;;;26.02;46.03;94960.22;5078059;28;20291;-42
2023/07/22 09:51:40;;;;;;;0.30;0.30;;;25.60;61.90;;;26.03;45.69;94973.34;5077876;28;20207;-36
2023/07/22 09:54:30;;;;;;;0.30;0.30;;;25.60;61.80;;;26.04;45.51;94961.53;5077948;28;20480;-38
2023/07/22 09:56:58;;;;;;;0.30;0.30;;;25.60;61.90;;;26.01;45.71;94950.53;5077513;28;20181;-36
2023/07/22 09:59:30;;;;;;;0.30;0.30;;;25.60;61.70;;;26.07;45.57;94946.72;5077178;28;20685;-39
2023/07/22 10:02:02;;;;;;;0.30;0.30;;;25.60;61.50;;;26.09;45.65;94954.53;5077513;28;20189;-40
2023/07/22 10:04:34;;;;;;;0.30;0.30;;;25.60;61.50;;;26.10;45.53;94953.41;5061423;28;20228;-40
2023/07/22 10:07:04;;;;;;;0.35;0.35;;;25.60;61.50;;;26.13;45.59;94950.16;5077480;28;20188;-39
2023/07/22 10:09:32;;;;;;;0.35;0.35;;;25.70;61.80;;;26.14;45.58;94944.47;5077455;28;20697;-39
2023/07/22 10:12:00;;;;;;;0.30;0.30;;;25.70;61.70;;;26.15;44.99;94939.94;5076647;28;20252;-40
2023/07/22 10:14:28;;;;;;;0.30;0.30;;;25.70;61.70;;;26.17;45.51;94946.59;5060138;28;20192;-40
2023/07/22 10:16:59;;;;;;;0.30;0.30;;;25.70;61.60;;;26.20;45.72;94937.16;5076212;28;20199;-40
2023/07/22 10:19:26;;;;;;;0.30;0.30;;;25.70;61.60;;;26.23;45.01;94946.53;5077392;28;20201;-37
2023/07/22 10:21:54;;;;;;;0.30;0.30;;;25.70;61.60;;;26.25;44.98;94934.38;5077201;28;20239;-37
2023/07/22 10:24:22;;;;;;;0.30;0.30;;;25.80;61.60;;;26.27;45.06;94932.22;5093211;28;20272;-38